Time;durP1;ratioP1;P1;durP2;ratioP2;P2;SDS_P1;SDS_P2;PMS_P1;PMS_P2;Temp;Humidity;BMP_temperature;BMP_pressure;BME280_temperature;BME280_humidity;BME280_pressure;Samples;Min_cycle;Max_cycle;Signal;HPM_P1;HPM_P2
2023/08/04 00:02:31;;;;;;;9.03;5.13;;;;;;;;;;6245494;28;20224;-64
2023/08/04 00:05:32;;;;;;;11.60;5.10;;;;;;;;;;6254406;28;20194;-64
2023/08/04 00:08:33;;;;;;;16.17;5.47;;;;;;;;;;6261809;28;20280;-64
2023/08/04 00:11:34;;;;;;;10.77;5.10;;;;;;;;;;6245980;28;20221;-64
2023/08/04 00:14:36;;;;;;;15.77;6.40;;;;;;;;;;6250247;28;20193;-65
2023/08/04 00:17:38;;;;;;;17.63;7.03;;;;;;;;;;6246592;28;20205;-64
2023/08/04 00:20:39;;;;;;;9.93;6.00;;;;;;;;;;6245775;28;20229;-65
2023/08/04 00:23:40;;;;;;;8.40;5.50;;;;;;;;;;6252521;28;20197;-64
2023/08/04 00:26:41;;;;;;;11.90;5.67;;;;;;;;;;6243987;28;20189;-64
2023/08/04 00:29:42;;;;;;;17.63;6.23;;;;;;;;;;6253547;28;20192;-65
2023/08/04 00:32:43;;;;;;;9.67;4.43;;;;;;;;;;6244510;28;20190;-64
2023/08/04 00:35:44;;;;;;;9.53;4.67;;;;;;;;;;6248893;28;20205;-64
2023/08/04 00:38:45;;;;;;;9.30;4.90;;;;;;;;;;6257792;28;20189;-64
2023/08/04 00:41:46;;;;;;;9.40;5.10;;;;;;;;;;6256302;28;20286;-64
2023/08/04 00:44:48;;;;;;;7.17;4.87;;;;;;;;;;6245316;28;20190;-64
2023/08/04 00:47:49;;;;;;;9.67;5.63;;;;;;;;;;6248551;28;20190;-64
2023/08/04 00:50:50;;;;;;;9.23;5.57;;;;;;;;;;6246103;28;20193;-65
2023/08/04 00:53:51;;;;;;;10.23;5.33;;;;;;;;;;6257640;28;20197;-64
2023/08/04 00:56:53;;;;;;;8.77;5.00;;;;;;;;;;6266479;28;20186;-64
2023/08/04 00:59:58;;;;;;;7.90;5.10;;;;;;;;;;6264920;28;20217;-64
2023/08/04 01:02:59;;;;;;;9.93;6.20;;;;;;;;;;6257875;28;20239;-64
2023/08/04 01:06:11;;;;;;;10.27;4.77;;;;;;;;;;6255580;28;20267;-64
2023/08/04 01:09:31;;;;;;;12.53;6.60;;;;;;;;;;6266634;28;20213;-64
2023/08/04 01:12:39;;;;;;;11.67;6.00;;;;;;;;;;6265818;28;20301;-64
2023/08/04 01:15:40;;;;;;;13.23;5.93;;;;;;;;;;6262683;28;20198;-64
2023/08/04 01:18:41;;;;;;;8.50;5.57;;;;;;;;;;6245814;28;20197;-64
2023/08/04 01:21:43;;;;;;;14.67;5.63;;;;;;;;;;6242948;28;20233;-64
2023/08/04 01:24:44;;;;;;;16.37;5.40;;;;;;;;;;6258074;28;20187;-65
2023/08/04 01:27:50;;;;;;;19.23;6.93;;;;;;;;;;6240571;28;20187;-64
2023/08/04 01:30:55;;;;;;;12.77;5.17;;;;;;;;;;6259636;28;20187;-65
2023/08/04 01:33:56;;;;;;;7.40;4.50;;;;;;;;;;6253032;28;20190;-64
2023/08/04 01:36:57;;;;;;;16.83;6.20;;;;;;;;;;6245902;28;20190;-64
2023/08/04 01:39:58;;;;;;;22.70;6.70;;;;;;;;;;6239756;28;20222;-64
2023/08/04 01:42:59;;;;;;;8.63;5.03;;;;;;;;;;6255014;28;20217;-64
2023/08/04 01:46:00;;;;;;;8.20;4.17;;;;;;;;;;6258701;28;20204;-65
2023/08/04 01:49:01;;;;;;;9.40;5.03;;;;;;;;;;6254699;28;20189;-64
2023/08/04 01:52:02;;;;;;;5.50;3.97;;;;;;;;;;6256342;28;20190;-64
2023/08/04 01:55:03;;;;;;;13.03;4.70;;;;;;;;;;6252991;28;20246;-64
2023/08/04 01:58:04;;;;;;;10.10;5.27;;;;;;;;;;6246300;28;20190;-64
2023/08/04 02:01:06;;;;;;;8.93;4.60;;;;;;;;;;6248254;28;20209;-64
2023/08/04 02:04:07;;;;;;;4.47;3.83;;;;;;;;;;6235786;28;20238;-64
2023/08/04 02:07:08;;;;;;;23.00;6.20;;;;;;;;;;6255680;28;20216;-64
2023/08/04 02:10:09;;;;;;;8.00;4.23;;;;;;;;;;6251714;28;20200;-64
2023/08/04 02:13:10;;;;;;;10.57;4.60;;;;;;;;;;6252444;28;20197;-64
2023/08/04 02:16:11;;;;;;;10.80;4.77;;;;;;;;;;6243310;28;20190;-64
2023/08/04 02:19:12;;;;;;;24.87;6.20;;;;;;;;;;6247590;28;20201;-64
2023/08/04 02:22:13;;;;;;;18.00;4.77;;;;;;;;;;6246469;28;20256;-65
2023/08/04 02:25:14;;;;;;;5.93;3.73;;;;;;;;;;6245959;28;20191;-64
2023/08/04 02:28:15;;;;;;;6.90;3.40;;;;;;;;;;6256080;28;20242;-65
2023/08/04 02:31:20;;;;;;;8.20;4.43;;;;;;;;;;6252576;28;20235;-64
2023/08/04 02:34:21;;;;;;;6.43;3.53;;;;;;;;;;6258845;28;20213;-64
2023/08/04 02:37:22;;;;;;;22.47;5.87;;;;;;;;;;6259373;28;20190;-64
2023/08/04 02:40:23;;;;;;;7.70;3.67;;;;;;;;;;6247956;28;20248;-64
2023/08/04 02:43:24;;;;;;;11.97;4.47;;;;;;;;;;6258543;28;20244;-64
2023/08/04 02:46:25;;;;;;;8.93;3.63;;;;;;;;;;6243718;28;20187;-65
2023/08/04 02:49:28;;;;;;;5.80;3.13;;;;;;;;;;6254046;28;20186;-65
2023/08/04 02:52:29;;;;;;;8.30;4.00;;;;;;;;;;6270374;28;20308;-65
2023/08/04 02:55:30;;;;;;;8.30;3.73;;;;;;;;;;6248273;28;20198;-65
2023/08/04 02:58:31;;;;;;;24.00;5.70;;;;;;;;;;6252771;28;20203;-65
2023/08/04 03:01:32;;;;;;;7.47;3.83;;;;;;;;;;6246470;28;20214;-65
2023/08/04 03:04:33;;;;;;;17.60;5.37;;;;;;;;;;6238376;28;20244;-64
2023/08/04 03:07:34;;;;;;;7.70;3.90;;;;;;;;;;6243107;28;20189;-65
2023/08/04 03:10:38;;;;;;;8.57;4.13;;;;;;;;;;6254455;28;20189;-64
2023/08/04 03:13:39;;;;;;;8.13;4.50;;;;;;;;;;6262742;28;20193;-65
2023/08/04 03:16:40;;;;;;;7.13;3.73;;;;;;;;;;6249258;28;20205;-64
2023/08/04 03:19:41;;;;;;;4.77;3.07;;;;;;;;;;6257997;28;20195;-65
2023/08/04 03:22:42;;;;;;;6.50;3.20;;;;;;;;;;6255794;28;20248;-65
2023/08/04 03:25:44;;;;;;;6.80;3.40;;;;;;;;;;6254459;28;20193;-64
2023/08/04 03:28:45;;;;;;;12.57;4.13;;;;;;;;;;6254814;28;20201;-64
2023/08/04 03:31:46;;;;;;;4.40;3.43;;;;;;;;;;6242669;28;20233;-64
2023/08/04 03:34:47;;;;;;;9.43;3.77;;;;;;;;;;6246417;28;20198;-64
2023/08/04 03:37:48;;;;;;;11.77;4.20;;;;;;;;;;6264124;28;20200;-64
2023/08/04 03:40:49;;;;;;;7.50;3.77;;;;;;;;;;6251717;28;20198;-63
2023/08/04 03:43:50;;;;;;;10.73;3.80;;;;;;;;;;6244213;28;20194;-64
2023/08/04 03:46:51;;;;;;;27.03;6.27;;;;;;;;;;6232285;28;20197;-64
2023/08/04 03:49:52;;;;;;;6.77;3.80;;;;;;;;;;6238364;28;20281;-64
2023/08/04 03:52:53;;;;;;;9.97;3.87;;;;;;;;;;6259425;28;20194;-64
2023/08/04 03:55:54;;;;;;;8.83;3.83;;;;;;;;;;6253716;28;20201;-64
2023/08/04 03:58:55;;;;;;;8.90;4.20;;;;;;;;;;6247864;28;20324;-64
2023/08/04 04:01:56;;;;;;;20.77;5.20;;;;;;;;;;6244826;28;20210;-65
2023/08/04 04:04:58;;;;;;;6.17;3.70;;;;;;;;;;6248285;28;20190;-65
2023/08/04 04:07:59;;;;;;;10.90;3.67;;;;;;;;;;6247564;28;20286;-64
2023/08/04 04:11:00;;;;;;;77.63;10.90;;;;;;;;;;6248034;28;20193;-64
2023/08/04 04:14:01;;;;;;;12.67;4.63;;;;;;;;;;6264153;28;20295;-64
2023/08/04 04:17:02;;;;;;;16.97;6.77;;;;;;;;;;6263263;28;20193;-64
2023/08/04 04:20:03;;;;;;;10.40;4.70;;;;;;;;;;6249726;28;20193;-65
2023/08/04 04:23:04;;;;;;;68.50;11.47;;;;;;;;;;6251744;28;20256;-64
2023/08/04 04:26:07;;;;;;;11.67;4.57;;;;;;;;;;6254951;28;20191;-64
2023/08/04 04:29:08;;;;;;;8.70;4.30;;;;;;;;;;6266694;28;20202;-64
2023/08/04 04:32:09;;;;;;;9.27;4.80;;;;;;;;;;6246763;28;20201;-64
2023/08/04 04:35:10;;;;;;;7.53;4.17;;;;;;;;;;6249929;28;20225;-64
2023/08/04 04:38:11;;;;;;;11.60;5.00;;;;;;;;;;6270455;28;20213;-64
2023/08/04 04:41:12;;;;;;;9.37;5.27;;;;;;;;;;6249908;28;20250;-64
2023/08/04 04:44:13;;;;;;;12.70;5.50;;;;;;;;;;6247943;28;20274;-65
2023/08/04 04:47:14;;;;;;;6.00;4.40;;;;;;;;;;6246293;28;20217;-64
2023/08/04 04:50:15;;;;;;;15.27;5.83;;;;;;;;;;6249526;28;20221;-64
2023/08/04 04:53:16;;;;;;;8.10;4.53;;;;;;;;;;6244496;28;20194;-64
2023/08/04 04:56:17;;;;;;;9.70;5.43;;;;;;;;;;6257517;28;20182;-65
2023/08/04 04:59:18;;;;;;;12.47;4.83;;;;;;;;;;6257121;28;20213;-64
2023/08/04 05:02:20;;;;;;;75.07;13.33;;;;;;;;;;6250503;28;20218;-64
2023/08/04 05:05:21;;;;;;;7.83;4.37;;;;;;;;;;6259399;28;20247;-65
2023/08/04 05:08:22;;;;;;;8.30;4.40;;;;;;;;;;6256635;28;20218;-63
2023/08/04 05:11:23;;;;;;;8.00;4.93;;;;;;;;;;6252246;28;20204;-64
2023/08/04 05:14:24;;;;;;;9.63;4.73;;;;;;;;;;6250506;28;20200;-65
2023/08/04 05:17:25;;;;;;;11.20;5.33;;;;;;;;;;6255001;28;20190;-64
2023/08/04 05:20:27;;;;;;;8.33;4.50;;;;;;;;;;6251801;28;20232;-64
2023/08/04 05:23:28;;;;;;;13.13;6.07;;;;;;;;;;6259958;28;20228;-64
2023/08/04 05:26:29;;;;;;;15.63;6.30;;;;;;;;;;6244867;28;20186;-65
2023/08/04 05:29:30;;;;;;;12.43;5.30;;;;;;;;;;6244489;28;20186;-65
2023/08/04 05:32:31;;;;;;;12.23;4.90;;;;;;;;;;6247439;28;20225;-64
2023/08/04 05:35:32;;;;;;;8.90;5.27;;;;;;;;;;6249025;28;20202;-64
2023/08/04 05:38:33;;;;;;;8.20;4.47;;;;;;;;;;6256480;28;20240;-64
2023/08/04 05:41:34;;;;;;;13.23;5.20;;;;;;;;;;6250610;28;20217;-64
2023/08/04 05:44:35;;;;;;;21.93;6.70;;;;;;;;;;6260112;28;20583;-65
2023/08/04 05:47:36;;;;;;;11.17;5.30;;;;;;;;;;6249544;28;20219;-65
2023/08/04 05:50:37;;;;;;;15.13;5.37;;;;;;;;;;6249301;28;20191;-65
2023/08/04 05:53:38;;;;;;;11.97;6.00;;;;;;;;;;6259561;28;20222;-67
2023/08/04 05:56:39;;;;;;;22.90;7.63;;;;;;;;;;6251361;28;20198;-67
2023/08/04 05:59:40;;;;;;;12.00;6.07;;;;;;;;;;6253820;28;20202;-67
2023/08/04 06:02:43;;;;;;;14.13;6.60;;;;;;;;;;6256179;28;20221;-67
2023/08/04 06:05:44;;;;;;;16.43;6.53;;;;;;;;;;6259320;28;20190;-67
2023/08/04 06:08:45;;;;;;;17.27;6.57;;;;;;;;;;6242264;28;20194;-67
2023/08/04 06:11:46;;;;;;;12.73;6.23;;;;;;;;;;6251219;28;20190;-67
2023/08/04 06:14:47;;;;;;;7.13;4.60;;;;;;;;;;6255329;28;20202;-67
2023/08/04 06:17:48;;;;;;;13.07;4.70;;;;;;;;;;6251882;28;20194;-67
2023/08/04 06:20:51;;;;;;;11.13;4.93;;;;;;;;;;6247712;28;20238;-67
2023/08/04 06:23:54;;;;;;;8.23;4.53;;;;;;;;;;6232404;28;20221;-67
2023/08/04 06:26:55;;;;;;;7.30;3.70;;;;;;;;;;6247333;28;20190;-67
2023/08/04 06:29:58;;;;;;;7.90;4.60;;;;;;;;;;6247499;28;20181;-67
2023/08/04 06:32:59;;;;;;;6.97;3.73;;;;;;;;;;6243312;28;20199;-67
2023/08/04 06:36:00;;;;;;;10.13;4.13;;;;;;;;;;6246149;28;20192;-67
2023/08/04 06:39:01;;;;;;;9.97;4.23;;;;;;;;;;6240524;28;20197;-67
2023/08/04 06:42:04;;;;;;;5.83;3.87;;;;;;;;;;6253679;28;20223;-67
2023/08/04 06:45:05;;;;;;;5.90;3.13;;;;;;;;;;6254201;28;20194;-67
2023/08/04 06:48:07;;;;;;;8.47;4.27;;;;;;;;;;6249180;28;20254;-67
2023/08/04 06:51:08;;;;;;;7.47;3.87;;;;;;;;;;6230809;28;20195;-67
2023/08/04 06:54:09;;;;;;;3.80;3.17;;;;;;;;;;6251441;28;20216;-67
2023/08/04 06:57:10;;;;;;;5.30;3.20;;;;;;;;;;6248554;28;20190;-67
2023/08/04 07:00:11;;;;;;;5.67;3.37;;;;;;;;;;6246263;28;20222;-67
2023/08/04 07:03:12;;;;;;;8.53;3.40;;;;;;;;;;6246725;28;20229;-67
2023/08/04 07:06:14;;;;;;;6.17;3.70;;;;;;;;;;6244321;28;20262;-68
2023/08/04 07:09:15;;;;;;;6.63;3.77;;;;;;;;;;6253657;28;20190;-67
2023/08/04 07:12:16;;;;;;;7.23;3.13;;;;;;;;;;6247486;28;20280;-67
2023/08/04 07:15:17;;;;;;;7.10;3.63;;;;;;;;;;6249035;28;20288;-68
2023/08/04 07:18:18;;;;;;;6.10;3.40;;;;;;;;;;6256744;28;20201;-67
2023/08/04 07:21:19;;;;;;;5.60;3.40;;;;;;;;;;6243959;28;20249;-67
2023/08/04 07:24:20;;;;;;;9.53;4.07;;;;;;;;;;6246135;28;20186;-67
2023/08/04 07:27:21;;;;;;;10.07;4.13;;;;;;;;;;6236515;28;20280;-67
2023/08/04 07:30:22;;;;;;;10.67;4.80;;;;;;;;;;6237426;28;20198;-67
2023/08/04 07:33:23;;;;;;;5.60;3.57;;;;;;;;;;6250416;28;20235;-67
2023/08/04 07:36:24;;;;;;;9.37;4.10;;;;;;;;;;6260486;28;20193;-67
2023/08/04 07:39:26;;;;;;;7.63;3.90;;;;;;;;;;6252247;28;20221;-67
2023/08/04 07:42:27;;;;;;;7.63;3.50;;;;;;;;;;6255490;28;20280;-67
2023/08/04 07:45:28;;;;;;;6.20;4.03;;;;;;;;;;6266119;28;20200;-67
2023/08/04 07:48:29;;;;;;;6.50;4.10;;;;;;;;;;6270073;28;20220;-67
2023/08/04 07:51:30;;;;;;;7.07;3.40;;;;;;;;;;6258604;28;20205;-67
2023/08/04 07:54:31;;;;;;;4.63;3.70;;;;;;;;;;6261902;28;20186;-67
2023/08/04 07:57:32;;;;;;;7.47;3.10;;;;;;;;;;6261799;28;20208;-67
2023/08/04 08:00:33;;;;;;;5.57;3.37;;;;;;;;;;6261396;28;20196;-67
2023/08/04 08:03:35;;;;;;;4.27;3.00;;;;;;;;;;6261667;28;20225;-67
2023/08/04 08:06:36;;;;;;;7.37;3.63;;;;;;;;;;6264428;28;20278;-67
2023/08/04 08:09:37;;;;;;;6.73;3.40;;;;;;;;;;6252662;28;20202;-67
2023/08/04 08:12:38;;;;;;;6.70;3.10;;;;;;;;;;6250595;28;20198;-67
2023/08/04 08:15:39;;;;;;;7.67;3.33;;;;;;;;;;6246952;28;20199;-68
2023/08/04 08:18:41;;;;;;;4.70;2.80;;;;;;;;;;6248207;28;20201;-67
2023/08/04 08:21:42;;;;;;;6.17;3.30;;;;;;;;;;6250629;28;20261;-67
2023/08/04 08:24:43;;;;;;;6.43;3.30;;;;;;;;;;6247581;28;20237;-67
2023/08/04 08:27:44;;;;;;;3.93;3.17;;;;;;;;;;6253587;28;20190;-67
2023/08/04 08:30:45;;;;;;;9.07;3.73;;;;;;;;;;6247388;28;20191;-67
2023/08/04 08:33:46;;;;;;;6.80;3.40;;;;;;;;;;6247320;28;20201;-67
2023/08/04 08:36:47;;;;;;;6.23;2.77;;;;;;;;;;6284867;28;20190;-67
2023/08/04 08:39:48;;;;;;;7.03;3.23;;;;;;;;;;6254336;28;20198;-67
2023/08/04 08:42:50;;;;;;;7.63;3.20;;;;;;;;;;6247881;28;20305;-67
2023/08/04 08:45:52;;;;;;;4.73;2.80;;;;;;;;;;6247243;28;20186;-67
2023/08/04 08:48:56;;;;;;;5.67;3.20;;;;;;;;;;6249747;28;20266;-67
2023/08/04 08:51:58;;;;;;;8.43;3.50;;;;;;;;;;6261827;28;20285;-67
2023/08/04 08:55:00;;;;;;;5.70;3.50;;;;;;;;;;6257751;28;20219;-67
2023/08/04 08:58:02;;;;;;;4.80;2.87;;;;;;;;;;6269081;28;20182;-67
2023/08/04 09:01:03;;;;;;;5.27;3.83;;;;;;;;;;6250024;28;20190;-67
2023/08/04 09:04:05;;;;;;;4.67;3.20;;;;;;;;;;6249546;28;20195;-67
2023/08/04 09:07:06;;;;;;;4.23;2.87;;;;;;;;;;6251766;28;20187;-67
2023/08/04 09:10:08;;;;;;;3.90;2.70;;;;;;;;;;6261456;28;20190;-67
2023/08/04 09:13:09;;;;;;;2.80;2.60;;;;;;;;;;6251904;28;20194;-67
2023/08/04 09:16:12;;;;;;;4.17;2.93;;;;;;;;;;6250181;28;20268;-67
2023/08/04 09:19:14;;;;;;;4.77;3.33;;;;;;;;;;6266602;28;20190;-67
2023/08/04 09:22:15;;;;;;;6.57;3.50;;;;;;;;;;6254784;28;20262;-67
2023/08/04 09:25:16;;;;;;;9.50;3.60;;;;;;;;;;6262824;28;20228;-67
2023/08/04 09:28:17;;;;;;;6.83;3.90;;;;;;;;;;6252611;28;20178;-67
2023/08/04 09:31:18;;;;;;;4.77;2.97;;;;;;;;;;6247437;28;20281;-67
2023/08/04 09:34:19;;;;;;;8.73;3.40;;;;;;;;;;6267839;28;20183;-68
2023/08/04 09:37:21;;;;;;;7.80;3.90;;;;;;;;;;6252973;28;20226;-67
2023/08/04 09:40:22;;;;;;;5.23;3.50;;;;;;;;;;6256706;28;20194;-67
2023/08/04 09:43:23;;;;;;;6.57;3.70;;;;;;;;;;6248519;28;20225;-67
2023/08/04 09:46:24;;;;;;;10.20;4.50;;;;;;;;;;6251756;28;20185;-67
2023/08/04 09:49:25;;;;;;;7.20;3.73;;;;;;;;;;6260352;28;20189;-67
2023/08/04 09:52:30;;;;;;;9.27;3.80;;;;;;;;;;6246941;28;20195;-67
2023/08/04 09:55:31;;;;;;;10.00;3.63;;;;;;;;;;6261127;28;20281;-67
2023/08/04 09:58:34;;;;;;;8.80;4.80;;;;;;;;;;6253251;28;20194;-67
2023/08/04 10:01:35;;;;;;;7.20;4.40;;;;;;;;;;6263121;28;20223;-67
2023/08/04 10:04:36;;;;;;;9.70;4.47;;;;;;;;;;6249020;28;20228;-67
2023/08/04 10:07:38;;;;;;;6.43;3.97;;;;;;;;;;6260577;28;20190;-67
2023/08/04 10:10:39;;;;;;;8.40;5.00;;;;;;;;;;6251738;28;20202;-67
2023/08/04 10:13:42;;;;;;;9.53;5.03;;;;;;;;;;6245800;28;20198;-67
2023/08/04 10:16:44;;;;;;;10.70;6.10;;;;;;;;;;6261541;28;20199;-67
2023/08/04 10:19:45;;;;;;;7.83;4.77;;;;;;;;;;6247968;28;20198;-67
2023/08/04 10:22:48;;;;;;;9.93;5.23;;;;;;;;;;6243145;28;20248;-67
2023/08/04 10:25:56;;;;;;;13.20;6.97;;;;;;;;;;6245834;28;20290;-67
2023/08/04 10:28:57;;;;;;;13.07;6.97;;;;;;;;;;6251713;28;20274;-67
2023/08/04 10:31:58;;;;;;;14.30;6.23;;;;;;;;;;6258778;28;20238;-67
2023/08/04 10:34:59;;;;;;;14.60;7.23;;;;;;;;;;6260475;28;20197;-67
2023/08/04 10:38:02;;;;;;;13.93;6.97;;;;;;;;;;6242950;28;20197;-67
2023/08/04 10:41:07;;;;;;;8.57;5.83;;;;;;;;;;6247311;28;20192;-67
2023/08/04 10:44:09;;;;;;;8.90;5.77;;;;;;;;;;6247471;28;20203;-67
2023/08/04 10:47:11;;;;;;;9.13;5.43;;;;;;;;;;6263780;28;20198;-67
2023/08/04 10:50:13;;;;;;;9.57;5.43;;;;;;;;;;6250979;28;20192;-67
2023/08/04 10:53:15;;;;;;;11.23;5.53;;;;;;;;;;6247712;28;20200;-67
2023/08/04 10:56:20;;;;;;;11.17;6.87;;;;;;;;;;6264517;28;20195;-67
2023/08/04 10:59:21;;;;;;;13.37;6.30;;;;;;;;;;6249768;28;20198;-67
2023/08/04 11:02:23;;;;;;;10.57;5.60;;;;;;;;;;6251932;28;20236;-67
2023/08/04 11:05:24;;;;;;;11.60;6.10;;;;;;;;;;6262302;28;20213;-67
2023/08/04 11:08:26;;;;;;;10.27;5.77;;;;;;;;;;6247410;28;20187;-67
2023/08/04 11:11:27;;;;;;;13.00;6.50;;;;;;;;;;6255310;28;20210;-67
2023/08/04 11:14:28;;;;;;;10.70;5.80;;;;;;;;;;6250436;28;20276;-67
2023/08/04 11:17:29;;;;;;;12.93;6.83;;;;;;;;;;6249665;28;20210;-67
2023/08/04 11:20:30;;;;;;;9.70;6.43;;;;;;;;;;6247722;28;20201;-67
2023/08/04 11:23:32;;;;;;;13.10;6.90;;;;;;;;;;6227717;28;20222;-67
2023/08/04 11:26:33;;;;;;;12.07;7.07;;;;;;;;;;6244102;28;20210;-67
2023/08/04 11:29:34;;;;;;;13.60;7.67;;;;;;;;;;6241043;28;20186;-67
2023/08/04 11:32:35;;;;;;;22.53;10.20;;;;;;;;;;6255690;28;20228;-67
2023/08/04 11:35:36;;;;;;;12.90;6.67;;;;;;;;;;6233655;28;20198;-67
2023/08/04 11:38:38;;;;;;;6.87;5.80;;;;;;;;;;6258307;28;20233;-67
2023/08/04 11:41:39;;;;;;;15.03;8.03;;;;;;;;;;6246985;28;20237;-67
2023/08/04 11:44:41;;;;;;;17.30;8.50;;;;;;;;;;6238013;28;20257;-67
2023/08/04 11:47:42;;;;;;;10.97;7.47;;;;;;;;;;6246414;28;20195;-67
2023/08/04 11:50:43;;;;;;;16.83;8.20;;;;;;;;;;6249973;28;20198;-67
2023/08/04 11:53:45;;;;;;;8.63;6.13;;;;;;;;;;6245180;28;20219;-67
2023/08/04 11:56:46;;;;;;;14.23;7.30;;;;;;;;;;6243132;28;20197;-67
2023/08/04 11:59:48;;;;;;;8.90;6.87;;;;;;;;;;6247098;28;20231;-67
2023/08/04 12:02:56;;;;;;;13.90;7.33;;;;;;;;;;6258980;28;20276;-67
2023/08/04 12:05:57;;;;;;;20.67;9.20;;;;;;;;;;6251994;28;20190;-67
2023/08/04 12:09:03;;;;;;;17.43;8.73;;;;;;;;;;6259614;28;20236;-67
2023/08/04 12:12:04;;;;;;;13.73;8.10;;;;;;;;;;6262187;28;20222;-67
2023/08/04 12:15:06;;;;;;;15.50;9.00;;;;;;;;;;6268972;28;20189;-67
2023/08/04 12:18:22;;;;;;;10.70;7.87;;;;;;;;;;6248255;28;20218;-67
2023/08/04 12:21:23;;;;;;;13.83;8.43;;;;;;;;;;6260740;28;20369;-67
2023/08/04 12:24:24;;;;;;;18.23;8.93;;;;;;;;;;6260859;28;20276;-67
2023/08/04 12:27:25;;;;;;;11.87;8.30;;;;;;;;;;6257025;28;20186;-67
2023/08/04 12:30:26;;;;;;;16.03;8.27;;;;;;;;;;6250110;28;20195;-67
2023/08/04 12:33:27;;;;;;;17.33;8.00;;;;;;;;;;6261749;28;20198;-67
2023/08/04 12:36:29;;;;;;;24.87;10.57;;;;;;;;;;6249939;28;20224;-67
2023/08/04 12:39:30;;;;;;;24.60;9.37;;;;;;;;;;6268316;28;20266;-67
2023/08/04 12:42:31;;;;;;;9.83;6.83;;;;;;;;;;6258104;28;20242;-67
2023/08/04 12:45:32;;;;;;;10.60;6.23;;;;;;;;;;6248472;28;20183;-67
2023/08/04 12:48:33;;;;;;;17.20;8.03;;;;;;;;;;6245951;28;20325;-67
2023/08/04 12:51:34;;;;;;;12.93;6.70;;;;;;;;;;6264279;28;20201;-67
2023/08/04 12:54:35;;;;;;;8.13;6.20;;;;;;;;;;6255553;28;20201;-67
2023/08/04 12:57:36;;;;;;;17.90;7.43;;;;;;;;;;6249374;28;20222;-67
2023/08/04 13:00:37;;;;;;;11.17;7.07;;;;;;;;;;6258686;28;20190;-67
2023/08/04 13:03:38;;;;;;;18.70;8.27;;;;;;;;;;6248425;28;20214;-67
2023/08/04 13:06:39;;;;;;;8.30;6.30;;;;;;;;;;6239643;28;20190;-67
2023/08/04 13:09:40;;;;;;;14.33;6.70;;;;;;;;;;6254884;28;20259;-67
2023/08/04 13:12:41;;;;;;;10.43;7.10;;;;;;;;;;6270905;28;20198;-67
2023/08/04 13:15:43;;;;;;;8.87;6.57;;;;;;;;;;6254301;28;20245;-67
2023/08/04 13:18:44;;;;;;;13.40;7.20;;;;;;;;;;6252715;28;20203;-67
2023/08/04 13:21:45;;;;;;;14.90;7.53;;;;;;;;;;6248052;28;20242;-67
2023/08/04 13:24:46;;;;;;;8.77;5.70;;;;;;;;;;6248357;28;20194;-67
2023/08/04 13:27:47;;;;;;;11.17;7.47;;;;;;;;;;6257166;28;20190;-67
2023/08/04 13:30:48;;;;;;;9.33;5.77;;;;;;;;;;6248432;28;20217;-67
2023/08/04 13:33:49;;;;;;;13.93;6.83;;;;;;;;;;6250628;28;20282;-67
2023/08/04 13:36:50;;;;;;;7.97;5.60;;;;;;;;;;6252157;28;20190;-67
2023/08/04 13:39:51;;;;;;;11.17;6.13;;;;;;;;;;6248002;28;20194;-67
2023/08/04 13:42:52;;;;;;;8.23;5.47;;;;;;;;;;6238238;28;20267;-67
2023/08/04 13:45:53;;;;;;;7.67;5.07;;;;;;;;;;6254496;28;20214;-67
2023/08/04 13:48:54;;;;;;;9.40;6.03;;;;;;;;;;6252097;28;20190;-67
2023/08/04 13:51:55;;;;;;;6.90;5.03;;;;;;;;;;6247201;28;20193;-68
2023/08/04 13:54:56;;;;;;;8.67;4.80;;;;;;;;;;6248264;28;20198;-67
2023/08/04 13:57:57;;;;;;;7.67;5.03;;;;;;;;;;6254479;28;20259;-67
2023/08/04 14:00:59;;;;;;;8.07;4.80;;;;;;;;;;6252142;28;20186;-68
2023/08/04 14:04:00;;;;;;;9.83;5.33;;;;;;;;;;6256059;28;20210;-68
2023/08/04 14:07:01;;;;;;;6.40;4.87;;;;;;;;;;6255163;28;20183;-68
2023/08/04 14:10:03;;;;;;;4.50;2.93;;;;;;;;;;6247138;28;20505;-68
2023/08/04 14:13:04;;;;;;;5.07;4.10;;;;;;;;;;6251432;28;20201;-68
2023/08/04 14:16:12;;;;;;;6.13;3.77;;;;;;;;;;6247160;28;20190;-68
2023/08/04 14:19:13;;;;;;;6.27;3.90;;;;;;;;;;6264127;28;20187;-68
2023/08/04 14:22:14;;;;;;;4.97;3.87;;;;;;;;;;6250969;28;20254;-67
2023/08/04 14:25:15;;;;;;;5.47;3.90;;;;;;;;;;6248544;28;20193;-68
2023/08/04 14:28:16;;;;;;;6.77;4.80;;;;;;;;;;6241857;28;20195;-68
2023/08/04 14:31:17;;;;;;;7.40;5.03;;;;;;;;;;6252996;28;20182;-68
2023/08/04 14:34:18;;;;;;;5.60;4.27;;;;;;;;;;6262761;28;20183;-68
2023/08/04 14:37:19;;;;;;;8.07;4.83;;;;;;;;;;6256617;28;20205;-67
2023/08/04 14:40:22;;;;;;;6.70;4.40;;;;;;;;;;6251898;28;20191;-68
2023/08/04 14:43:23;;;;;;;6.33;5.30;;;;;;;;;;6256615;28;20214;-67
2023/08/04 14:46:24;;;;;;;5.83;4.60;;;;;;;;;;6242672;28;20198;-67
2023/08/04 14:49:25;;;;;;;5.00;4.10;;;;;;;;;;6250725;28;20181;-67
2023/08/04 14:52:26;;;;;;;4.60;4.20;;;;;;;;;;6240440;28;20214;-67
2023/08/04 14:55:27;;;;;;;5.17;4.63;;;;;;;;;;6251996;28;20197;-67
2023/08/04 14:58:28;;;;;;;6.80;4.73;;;;;;;;;;6250911;28;20194;-67
2023/08/04 15:01:29;;;;;;;7.13;5.00;;;;;;;;;;6251018;28;20237;-67
2023/08/04 15:04:30;;;;;;;6.77;4.73;;;;;;;;;;6241670;28;20209;-67
2023/08/04 15:07:31;;;;;;;6.60;4.33;;;;;;;;;;6251339;28;20186;-67
2023/08/04 15:10:33;;;;;;;7.60;5.07;;;;;;;;;;6252001;28;20200;-67
2023/08/04 15:13:34;;;;;;;5.13;4.57;;;;;;;;;;6263763;28;20202;-67
2023/08/04 15:16:36;;;;;;;7.17;5.47;;;;;;;;;;6261536;28;20194;-67
2023/08/04 15:19:37;;;;;;;7.63;4.80;;;;;;;;;;6260931;28;20203;-68
2023/08/04 15:22:38;;;;;;;5.33;4.60;;;;;;;;;;6274744;28;20246;-68
2023/08/04 15:25:39;;;;;;;7.13;4.33;;;;;;;;;;6240005;28;20198;-67
2023/08/04 15:28:43;;;;;;;5.67;4.07;;;;;;;;;;6264902;28;20229;-67
2023/08/04 15:31:44;;;;;;;8.23;4.43;;;;;;;;;;6250419;28;20226;-67
2023/08/04 15:34:46;;;;;;;10.67;5.90;;;;;;;;;;6253768;28;20232;-68
2023/08/04 15:37:47;;;;;;;5.60;4.33;;;;;;;;;;6252334;28;20194;-67
2023/08/04 15:40:58;;;;;;;10.00;5.80;;;;;;;;;;6261697;28;20190;-67
2023/08/04 15:43:59;;;;;;;6.23;4.50;;;;;;;;;;6258771;28;20274;-67
2023/08/04 15:47:00;;;;;;;6.67;4.90;;;;;;;;;;6231731;28;20198;-67
2023/08/04 15:50:01;;;;;;;7.10;4.23;;;;;;;;;;6236947;28;20201;-67
2023/08/04 15:53:02;;;;;;;5.03;4.40;;;;;;;;;;6254138;28;20280;-67
2023/08/04 15:56:04;;;;;;;7.20;4.87;;;;;;;;;;6243478;28;20191;-67
2023/08/04 15:59:05;;;;;;;7.30;5.03;;;;;;;;;;6250065;28;20194;-68
2023/08/04 16:02:06;;;;;;;8.67;4.90;;;;;;;;;;6241270;28;20213;-67
2023/08/04 16:05:07;;;;;;;6.90;4.90;;;;;;;;;;6261332;28;20186;-67
2023/08/04 16:08:08;;;;;;;6.27;5.67;;;;;;;;;;6250563;28;20280;-67
2023/08/04 16:11:09;;;;;;;8.83;5.40;;;;;;;;;;6256926;28;20194;-67
2023/08/04 16:14:10;;;;;;;11.00;6.60;;;;;;;;;;6270857;28;20193;-68
2023/08/04 16:17:11;;;;;;;8.83;5.60;;;;;;;;;;6256851;28;20201;-67
2023/08/04 16:20:13;;;;;;;6.00;5.27;;;;;;;;;;6249031;28;20236;-67
2023/08/04 16:23:15;;;;;;;7.17;5.40;;;;;;;;;;6256393;28;20296;-67
2023/08/04 16:26:16;;;;;;;11.83;6.27;;;;;;;;;;6256755;28;20190;-67
2023/08/04 16:29:17;;;;;;;9.10;5.73;;;;;;;;;;6256954;28;20190;-67
2023/08/04 16:32:18;;;;;;;8.47;6.07;;;;;;;;;;6255787;28;20202;-67
2023/08/04 16:35:21;;;;;;;8.63;6.07;;;;;;;;;;6255677;28;20196;-67
2023/08/04 16:38:22;;;;;;;10.70;6.50;;;;;;;;;;6253173;28;20195;-67
2023/08/04 16:41:23;;;;;;;8.67;6.03;;;;;;;;;;6244110;28;20197;-67
2023/08/04 16:44:24;;;;;;;14.63;7.27;;;;;;;;;;6258123;28;20246;-67
2023/08/04 16:47:25;;;;;;;8.77;6.13;;;;;;;;;;6253697;28;20207;-67
2023/08/04 16:50:26;;;;;;;8.67;6.50;;;;;;;;;;6249946;28;20212;-67
2023/08/04 16:53:28;;;;;;;8.27;6.17;;;;;;;;;;6247564;28;20194;-67
2023/08/04 16:56:29;;;;;;;8.50;6.40;;;;;;;;;;6248001;28;20201;-67
2023/08/04 16:59:30;;;;;;;9.90;6.10;;;;;;;;;;6256416;28;20194;-67
2023/08/04 17:02:31;;;;;;;9.27;6.73;;;;;;;;;;6257649;28;20212;-67
2023/08/04 17:05:32;;;;;;;8.73;6.40;;;;;;;;;;6251407;28;20198;-67
2023/08/04 17:08:33;;;;;;;8.63;6.80;;;;;;;;;;6254393;28;20198;-67
2023/08/04 17:11:34;;;;;;;8.97;7.03;;;;;;;;;;6278270;28;20193;-67
2023/08/04 17:14:35;;;;;;;15.73;7.53;;;;;;;;;;6249118;28;20217;-67
2023/08/04 17:17:36;;;;;;;7.90;6.87;;;;;;;;;;6253057;28;20193;-67
2023/08/04 17:20:37;;;;;;;7.83;7.03;;;;;;;;;;6259428;28;20255;-67
2023/08/04 17:23:38;;;;;;;13.87;8.33;;;;;;;;;;6247750;28;20312;-67
2023/08/04 17:26:39;;;;;;;12.67;8.77;;;;;;;;;;6236034;28;20190;-67
2023/08/04 17:29:40;;;;;;;12.60;8.03;;;;;;;;;;6248406;28;20285;-67
2023/08/04 17:32:42;;;;;;;11.57;7.83;;;;;;;;;;6246917;28;20194;-67
2023/08/04 17:35:43;;;;;;;14.20;9.00;;;;;;;;;;6255741;28;20205;-67
2023/08/04 17:38:44;;;;;;;9.37;7.97;;;;;;;;;;6255527;28;20189;-67
2023/08/04 17:41:45;;;;;;;12.53;9.40;;;;;;;;;;6250094;28;20228;-67
2023/08/04 17:44:46;;;;;;;8.47;7.37;;;;;;;;;;6255737;28;20189;-67
2023/08/04 17:47:47;;;;;;;15.23;9.70;;;;;;;;;;6250883;28;20235;-67
2023/08/04 17:50:52;;;;;;;11.57;8.27;;;;;;;;;;6254691;28;20190;-67
2023/08/04 17:53:53;;;;;;;8.57;7.77;;;;;;;;;;6262538;28;20218;-67
2023/08/04 17:56:54;;;;;;;15.03;7.97;;;;;;;;;;6253579;28;20214;-67
2023/08/04 17:59:55;;;;;;;10.77;8.33;;;;;;;;;;6245643;28;20202;-67
2023/08/04 18:02:56;;;;;;;8.50;7.57;;;;;;;;;;6249189;28;20218;-67